Time;durP1;ratioP1;P1;durP2;ratioP2;P2;SDS_P1;SDS_P2;PMS_P1;PMS_P2;Temp;Humidity;BMP_temperature;BMP_pressure;BME280_temperature;BME280_humidity;BME280_pressure;Samples;Min_cycle;Max_cycle;Signal;HPM_P1;HPM_P2
2022/03/06 00:01:17;;;;;;;23.60;14.00;;;;;;;-0.91;62.48;101360.20;88273;1274;77779;-77
2022/03/06 00:03:26;;;;;;;22.50;13.80;;;;;;;-0.91;62.56;101365.35;88327;1274;80457;-78
2022/03/06 00:05:36;;;;;;;20.10;12.80;;;;;;;-0.91;62.52;101362.54;88331;1272;99508;-78
2022/03/06 00:07:45;;;;;;;23.20;13.50;;;;;;;-0.90;62.40;101368.48;88293;1274;89532;-78
2022/03/06 00:09:54;;;;;;;18.90;12.20;;;;;;;-0.92;62.65;101369.79;88278;1274;95377;-62
2022/03/06 00:12:04;;;;;;;21.90;12.80;;;;;;;-0.93;62.91;101371.98;88304;1274;80827;-61
2022/03/06 00:14:16;;;;;;;15.90;10.50;;;;;;;-0.94;63.13;101371.73;88321;1274;82423;-63
2022/03/06 00:16:26;;;;;;;17.70;11.30;;;;;;;-0.96;63.22;101371.64;88273;1274;99953;-64
2022/03/06 00:18:37;;;;;;;18.90;11.40;;;;;;;-0.96;63.12;101369.34;88286;1273;86564;-61
2022/03/06 00:20:47;;;;;;;15.50;11.20;;;;;;;-0.97;63.11;101368.51;88273;1274;94918;-79
2022/03/06 00:22:57;;;;;;;20.30;12.60;;;;;;;-0.96;63.44;101368.82;88336;1274;79842;-80
2022/03/06 00:25:12;;;;;;;19.00;11.70;;;;;;;-0.93;63.52;101369.34;88343;1274;82903;-61
2022/03/06 00:27:21;;;;;;;15.50;11.40;;;;;;;-0.90;63.71;101367.20;88225;1274;101137;-62
2022/03/06 00:29:30;;;;;;;16.60;10.60;;;;;;;-0.87;63.51;101369.50;88311;1274;86254;-61
2022/03/06 00:31:44;;;;;;;17.60;11.90;;;;;;;-0.83;63.42;101368.72;88312;1274;94170;-61
2022/03/06 00:33:54;;;;;;;18.60;11.90;;;;;;;-0.78;63.23;101368.41;88291;1274;77946;-60
2022/03/06 00:36:05;;;;;;;17.70;11.90;;;;;;;-0.75;63.11;101366.12;88360;1274;80225;-78
2022/03/06 00:38:15;;;;;;;21.30;12.20;;;;;;;-0.74;63.07;101363.91;88419;1274;99294;-78
2022/03/06 00:40:25;;;;;;;19.20;12.30;;;;;;;-0.73;62.88;101364.05;88378;1274;89841;-79
2022/03/06 00:42:38;;;;;;;20.60;12.50;;;;;;;-0.70;62.76;101362.77;88313;1274;95525;-78
2022/03/06 00:44:47;;;;;;;21.30;13.40;;;;;;;-0.69;62.67;101357.42;88325;1274;78768;-61
2022/03/06 00:46:56;;;;;;;20.70;13.00;;;;;;;-0.68;62.64;101359.63;88314;1274;79869;-62
2022/03/06 00:49:06;;;;;;;20.10;12.60;;;;;;;-0.68;62.88;101354.00;88274;1274;97498;-61
2022/03/06 00:51:19;;;;;;;17.50;11.80;;;;;;;-0.69;62.97;101352.30;88332;1274;88541;-78
2022/03/06 00:53:28;;;;;;;16.40;11.10;;;;;;;-0.71;62.92;101353.11;88327;1274;95002;-78
2022/03/06 00:55:38;;;;;;;15.40;10.20;;;;;;;-0.72;62.98;101358.48;88320;1274;77924;-61
2022/03/06 00:57:47;;;;;;;15.30;10.20;;;;;;;-0.75;63.18;101354.81;88194;1274;80918;-61
2022/03/06 00:59:59;;;;;;;17.00;10.70;;;;;;;-0.80;63.42;101354.04;88355;1274;99043;-78
2022/03/06 01:02:09;;;;;;;16.30;10.50;;;;;;;-0.82;63.61;101355.39;88348;1272;87743;-79
2022/03/06 01:04:18;;;;;;;16.60;10.40;;;;;;;-0.82;63.66;101358.61;88362;1273;95921;-78
2022/03/06 01:06:27;;;;;;;17.20;10.60;;;;;;;-0.87;63.98;101353.74;88324;1274;79065;-78
2022/03/06 01:08:39;;;;;;;14.90;10.30;;;;;;;-0.90;64.01;101348.65;88314;1274;82336;-79
2022/03/06 01:10:51;;;;;;;16.10;9.90;;;;;;;-0.92;64.21;101347.36;88335;1272;99345;-60
2022/03/06 01:13:00;;;;;;;17.90;11.50;;;;;;;-0.94;64.35;101343.60;88284;1274;89305;-61
2022/03/06 01:15:11;;;;;;;16.40;10.70;;;;;;;-0.97;64.36;101342.73;88323;1274;96274;-60
2022/03/06 01:17:20;;;;;;;16.20;11.30;;;;;;;-0.99;64.50;101344.27;88290;1274;79779;-61
2022/03/06 01:19:32;;;;;;;15.90;11.50;;;;;;;-0.98;64.74;101344.19;88320;1274;80807;-62
2022/03/06 01:21:42;;;;;;;16.50;11.40;;;;;;;-0.98;64.52;101339.63;88277;1274;98369;-61
2022/03/06 01:23:52;;;;;;;17.30;12.30;;;;;;;-0.96;64.79;101337.20;88276;1274;86679;-63
2022/03/06 01:26:04;;;;;;;17.70;11.30;;;;;;;-0.94;64.75;101335.66;88316;1274;96027;-78
2022/03/06 01:28:13;;;;;;;17.30;11.30;;;;;;;-0.94;64.84;101337.23;88344;1274;78640;-77
2022/03/06 01:30:25;;;;;;;17.50;12.20;;;;;;;-0.96;64.91;101337.17;88325;1274;81706;-61
2022/03/06 01:32:35;;;;;;;18.00;12.70;;;;;;;-0.96;64.63;101331.73;88296;1274;100251;-62
2022/03/06 01:34:47;;;;;;;18.80;11.90;;;;;;;-0.95;64.91;101332.02;88317;1274;88104;-77
2022/03/06 01:36:56;;;;;;;18.50;11.90;;;;;;;-0.96;64.94;101333.86;88303;1274;93046;-78
2022/03/06 01:39:06;;;;;;;18.80;12.40;;;;;;;-0.94;65.15;101334.08;88304;1274;77466;-78
2022/03/06 01:41:14;;;;;;;21.40;13.80;;;;;;;-0.89;65.26;101331.84;88294;1274;81270;-60
2022/03/06 01:43:23;;;;;;;22.10;12.80;;;;;;;-0.87;65.16;101330.81;88291;1274;98769;-61
2022/03/06 01:45:33;;;;;;;22.00;13.70;;;;;;;-0.87;64.91;101330.23;88303;1274;87226;-61
2022/03/06 01:47:46;;;;;;;18.20;13.00;;;;;;;-0.86;64.97;101333.03;88297;1274;95255;-61
2022/03/06 01:49:55;;;;;;;22.30;13.70;;;;;;;-0.87;64.79;101327.25;88366;1274;79047;-78
2022/03/06 01:52:06;;;;;;;22.80;14.50;;;;;;;-0.89;64.56;101330.75;88328;1274;83201;-77
2022/03/06 01:54:18;;;;;;;29.00;14.80;;;;;;;-0.93;64.57;101328.33;88348;1274;98821;-76
2022/03/06 01:56:26;;;;;;;20.50;14.00;;;;;;;-0.95;64.59;101327.58;88307;1274;88143;-77
2022/03/06 01:58:38;;;;;;;20.70;13.70;;;;;;;-0.99;64.28;101327.63;88347;1274;93403;-77
2022/03/06 02:00:50;;;;;;;22.00;13.80;;;;;;;-1.01;64.43;101330.24;88319;1273;77515;-78
2022/03/06 02:03:02;;;;;;;22.90;13.50;;;;;;;-1.04;64.28;101325.29;88375;1274;83125;-77
2022/03/06 02:05:13;;;;;;;19.80;13.00;;;;;;;-1.03;64.49;101325.81;88331;1274;98214;-79
2022/03/06 02:07:24;;;;;;;20.90;13.00;;;;;;;-1.05;64.61;101323.80;88302;1274;88206;-79
2022/03/06 02:09:34;;;;;;;19.70;12.80;;;;;;;-1.08;64.56;101318.45;88388;1274;93016;-78
2022/03/06 02:12:18;;;;;;;18.10;13.30;;;;;;;-1.10;64.69;101320.71;88369;1274;76603;-79
2022/03/06 02:14:13;;;;;;;21.90;13.60;;;;;;;-1.11;64.89;101317.98;88312;1274;82482;-64
2022/03/06 02:16:22;;;;;;;20.10;13.40;;;;;;;-1.13;64.98;101314.20;88265;1274;98614;-61
2022/03/06 02:18:34;;;;;;;19.90;14.10;;;;;;;-1.16;65.01;101316.30;88278;1274;88435;-61
2022/03/06 02:20:42;;;;;;;23.50;13.20;;;;;;;-1.19;65.26;101315.41;88386;1273;95164;-78
2022/03/06 02:22:53;;;;;;;20.40;12.80;;;;;;;-1.18;65.52;101312.40;88296;1274;79100;-78
2022/03/06 02:25:05;;;;;;;20.90;13.50;;;;;;;-1.18;65.45;101314.52;88348;1274;82918;-78
2022/03/06 02:27:14;;;;;;;20.10;14.50;;;;;;;-1.21;65.31;101307.42;88359;1274;97434;-79
2022/03/06 02:29:23;;;;;;;19.00;12.10;;;;;;;-1.22;65.22;101304.15;88319;1274;88525;-61
2022/03/06 02:31:31;;;;;;;18.50;12.40;;;;;;;-1.20;65.15;101304.20;88280;1274;95872;-61
2022/03/06 02:33:40;;;;;;;17.40;12.20;;;;;;;-1.17;65.24;101297.12;88266;1274;79799;-61
2022/03/06 02:35:49;;;;;;;16.30;11.40;;;;;;;-1.14;65.05;101300.63;88298;1273;82918;-60
2022/03/06 02:37:58;;;;;;;13.10;8.90;;;;;;;-1.09;64.86;101301.04;88300;1274;99762;-63
2022/03/06 02:40:12;;;;;;;13.80;9.10;;;;;;;-1.05;64.41;101299.20;88327;1274;88395;-77
2022/03/06 02:42:30;;;;;;;;;;;;;;;-1.02;63.93;101295.64;88226;1272;92700;-78
2022/03/06 02:44:39;;;;;;;13.60;9.00;;;;;;;-1.00;64.12;101293.22;88306;1271;77368;-79
2022/03/06 02:46:51;;;;;;;13.00;9.20;;;;;;;-0.99;64.12;101292.60;88358;1273;80276;-78
2022/03/06 02:49:00;;;;;;;11.70;8.50;;;;;;;-0.98;64.27;101291.52;88376;1274;100147;-78
2022/03/06 02:51:12;;;;;;;15.40;10.00;;;;;;;-0.99;64.29;101291.76;88383;1274;87995;-78
2022/03/06 02:53:24;;;;;;;14.60;10.10;;;;;;;-1.03;64.32;101289.36;88343;1271;95009;-78
2022/03/06 02:55:33;;;;;;;14.50;9.90;;;;;;;-1.06;64.57;101286.72;88296;1273;76609;-61
2022/03/06 02:57:43;;;;;;;18.80;12.10;;;;;;;-1.07;64.69;101291.05;88307;1274;81696;-60
2022/03/06 02:59:55;;;;;;;19.00;11.90;;;;;;;-1.11;64.75;101295.89;88332;1274;99226;-60
2022/03/06 03:02:04;;;;;;;18.70;12.10;;;;;;;-1.16;64.86;101296.03;88287;1273;88647;-60
2022/03/06 03:04:13;;;;;;;17.20;12.20;;;;;;;-1.19;65.08;101293.90;88273;1274;93870;-76
2022/03/06 03:06:22;;;;;;;18.40;11.50;;;;;;;-1.22;65.20;101290.67;88349;1274;79436;-79
2022/03/06 03:08:31;;;;;;;17.60;12.10;;;;;;;-1.25;65.37;101294.56;88340;1274;82719;-77
2022/03/06 03:10:40;;;;;;;17.70;12.50;;;;;;;-1.28;65.50;101293.05;88307;1274;98374;-63
2022/03/06 03:12:49;;;;;;;18.70;12.50;;;;;;;-1.31;65.55;101296.56;88295;1274;88296;-61
2022/03/06 03:14:58;;;;;;;17.10;11.70;;;;;;;-1.34;65.16;101300.30;88321;1274;95225;-78
2022/03/06 03:17:09;;;;;;;18.20;12.30;;;;;;;-1.36;65.26;101296.54;88360;1274;78750;-79
2022/03/06 03:19:19;;;;;;;14.70;11.30;;;;;;;-1.39;65.39;101295.80;88353;1274;81149;-78
2022/03/06 03:21:28;;;;;;;12.30;8.50;;;;;;;-1.37;64.53;101290.41;88317;1272;98712;-78
2022/03/06 03:23:36;;;;;;;8.40;6.60;;;;;;;-1.36;64.15;101293.48;88339;1274;87743;-78
2022/03/06 03:25:45;;;;;;;8.50;5.10;;;;;;;-1.35;63.71;101294.14;88289;1274;94146;-62
2022/03/06 03:27:54;;;;;;;6.90;5.40;;;;;;;-1.33;63.61;101293.70;88292;1272;79704;-63
2022/03/06 03:30:04;;;;;;;9.70;5.70;;;;;;;-1.33;63.41;101297.19;88315;1273;83102;-79
2022/03/06 03:32:14;;;;;;;11.60;6.20;;;;;;;-1.32;63.36;101299.29;88340;1273;98802;-77
2022/03/06 03:34:24;;;;;;;10.10;7.30;;;;;;;-1.33;63.30;101296.12;88300;1274;87394;-61
2022/03/06 03:36:33;;;;;;;9.10;7.20;;;;;;;-1.34;63.12;101296.73;87215;1274;1432590;-61
2022/03/06 03:38:43;;;;;;;11.40;7.80;;;;;;;-1.35;63.16;101300.89;88255;1274;78327;-60
2022/03/06 03:40:53;;;;;;;11.60;7.80;;;;;;;-1.36;63.20;101301.96;88260;1272;82744;-61
2022/03/06 03:43:02;;;;;;;12.10;8.10;;;;;;;-1.35;62.97;101305.09;88249;1274;99922;-60
2022/03/06 03:45:13;;;;;;;14.20;8.90;;;;;;;-1.37;63.22;101299.77;88288;1273;89008;-60
2022/03/06 03:47:23;;;;;;;12.70;9.60;;;;;;;-1.42;63.52;101297.05;88266;1274;95266;-59
2022/03/06 03:49:32;;;;;;;14.70;9.70;;;;;;;-1.43;63.40;101298.86;88376;1273;77971;-77
2022/03/06 03:51:45;;;;;;;14.40;9.20;;;;;;;-1.44;63.68;101301.20;88405;1273;81149;-77
2022/03/06 03:53:54;;;;;;;11.70;7.80;;;;;;;-1.47;63.96;101295.08;88300;1273;99330;-79
2022/03/06 03:56:05;;;;;;;15.70;10.90;;;;;;;-1.49;63.82;101299.05;88251;1273;88717;-67
2022/03/06 03:58:15;;;;;;;16.60;10.30;;;;;;;-1.49;63.93;101297.44;88272;1273;96176;-60
2022/03/06 04:00:24;;;;;;;13.10;9.70;;;;;;;-1.49;64.20;101302.21;88273;1274;78804;-78
2022/03/06 04:02:33;;;;;;;16.30;10.20;;;;;;;-1.50;64.02;101301.39;88293;1273;80991;-79
2022/03/06 04:04:42;;;;;;;16.00;10.10;;;;;;;-1.52;64.19;101301.55;88301;1274;99419;-78
2022/03/06 04:06:54;;;;;;;15.40;9.60;;;;;;;-1.56;64.24;101300.36;88280;1273;87680;-78
2022/03/06 04:09:04;;;;;;;11.80;9.10;;;;;;;-1.56;64.43;101306.39;88291;1273;95537;-78
2022/03/06 04:11:13;;;;;;;15.30;10.50;;;;;;;-1.57;64.13;101306.60;88227;1273;81085;-60
2022/03/06 04:13:22;;;;;;;15.60;10.00;;;;;;;-1.58;64.35;101302.64;88275;1273;83974;-61
2022/03/06 04:15:31;;;;;;;15.50;10.30;;;;;;;-1.57;64.70;101305.38;88256;1273;100051;-61
2022/03/06 04:17:40;;;;;;;15.10;10.00;;;;;;;-1.52;64.89;101307.73;88252;1273;89288;-61
2022/03/06 04:19:49;;;;;;;15.40;9.80;;;;;;;-1.50;64.72;101307.95;88286;1273;95812;-78
2022/03/06 04:21:58;;;;;;;14.10;10.10;;;;;;;-1.44;64.84;101306.35;88266;1273;79300;-78
2022/03/06 04:24:09;;;;;;;15.50;10.10;;;;;;;-1.36;64.81;101309.61;88272;1274;83217;-77
2022/03/06 04:26:21;;;;;;;14.40;9.70;;;;;;;-1.32;64.70;101308.79;88252;1274;99763;-60
2022/03/06 04:28:30;;;;;;;15.30;10.30;;;;;;;-1.29;64.96;101307.56;88310;1273;89271;-63
2022/03/06 04:30:40;;;;;;;14.90;9.60;;;;;;;-1.27;64.83;101309.04;88232;1273;95796;-60
2022/03/06 04:32:52;;;;;;;15.50;9.80;;;;;;;-1.29;64.75;101310.56;88242;1274;79691;-60
2022/03/06 04:35:02;;;;;;;11.50;7.70;;;;;;;-1.27;64.87;101310.98;88298;1273;80921;-78
2022/03/06 04:37:15;;;;;;;15.90;9.20;;;;;;;-1.28;64.94;101312.27;88294;1273;99553;-61
2022/03/06 04:39:24;;;;;;;16.70;10.70;;;;;;;-1.28;64.86;101312.27;88272;1273;88440;-77
2022/03/06 04:41:37;;;;;;;15.70;9.80;;;;;;;-1.28;64.56;101314.58;88257;1274;95413;-78
2022/03/06 04:43:46;;;;;;;15.10;9.30;;;;;;;-1.32;64.52;101313.93;88294;1271;78885;-78
2022/03/06 04:45:55;;;;;;;18.00;10.40;;;;;;;-1.34;64.90;101312.98;88287;1273;82330;-77
2022/03/06 04:48:05;;;;;;;15.70;10.20;;;;;;;-1.36;64.81;101315.79;88271;1273;100203;-78
2022/03/06 04:50:15;;;;;;;16.00;10.50;;;;;;;-1.39;64.85;101317.89;88293;1273;89677;-78
2022/03/06 04:52:27;;;;;;;17.80;11.50;;;;;;;-1.37;64.96;101311.92;88246;1274;93759;-78
2022/03/06 04:54:37;;;;;;;18.30;10.70;;;;;;;-1.37;65.11;101313.20;88292;1273;79059;-78
2022/03/06 04:56:46;;;;;;;16.50;9.60;;;;;;;-1.38;64.82;101312.36;88304;1273;79452;-77
2022/03/06 04:58:55;;;;;;;13.20;8.50;;;;;;;-1.39;64.64;101307.29;88287;1273;99479;-78
2022/03/06 05:01:05;;;;;;;13.40;8.80;;;;;;;-1.41;64.47;101307.39;88277;1273;87690;-59
2022/03/06 05:03:18;;;;;;;13.70;8.40;;;;;;;-1.41;64.62;101305.12;88276;1274;96007;-60
2022/03/06 05:05:27;;;;;;;14.00;7.90;;;;;;;-1.44;64.57;101302.26;88247;1273;78497;-77
2022/03/06 05:07:36;;;;;;;14.00;7.90;;;;;;;-1.44;64.65;101304.39;88283;1273;82465;-79
2022/03/06 05:09:45;;;;;;;13.80;8.50;;;;;;;-1.45;64.60;101302.88;88285;1273;97412;-60
2022/03/06 05:11:54;;;;;;;15.50;9.30;;;;;;;-1.48;64.69;101307.66;88260;1272;89822;-61
2022/03/06 05:14:04;;;;;;;14.60;9.50;;;;;;;-1.50;64.47;101306.35;88244;1273;93912;-60
2022/03/06 05:16:13;;;;;;;15.30;9.00;;;;;;;-1.50;64.69;101308.65;88257;1273;80761;-77
2022/03/06 05:18:26;;;;;;;17.80;10.10;;;;;;;-1.53;64.73;101305.99;88211;1273;83007;-77
2022/03/06 05:20:35;;;;;;;13.80;7.60;;;;;;;-1.53;64.86;101304.07;88258;1274;98548;-63
2022/03/06 05:22:44;;;;;;;15.20;9.00;;;;;;;-1.54;64.80;101304.48;88266;1274;89438;-60
2022/03/06 05:24:58;;;;;;;16.20;9.90;;;;;;;-1.54;64.93;101306.98;88299;1273;94289;-78
2022/03/06 05:27:06;;;;;;;16.10;10.00;;;;;;;-1.53;64.92;101306.02;88270;1273;78535;-77
2022/03/06 05:29:15;;;;;;;14.70;9.70;;;;;;;-1.52;65.28;101301.20;88261;1273;80874;-77
2022/03/06 05:31:24;;;;;;;15.30;9.30;;;;;;;-1.54;64.99;101298.26;88255;1273;99005;-78
2022/03/06 05:33:33;;;;;;;16.10;9.90;;;;;;;-1.53;64.73;101300.02;88285;1273;89401;-78
2022/03/06 05:35:42;;;;;;;16.50;9.40;;;;;;;-1.53;65.08;101298.25;88245;1273;95107;-60
2022/03/06 05:37:51;;;;;;;14.20;9.10;;;;;;;-1.53;64.71;101299.09;88272;1273;79260;-60
2022/03/06 05:40:00;;;;;;;18.10;10.20;;;;;;;-1.53;64.85;101298.09;88298;1273;83320;-77
2022/03/06 05:42:10;;;;;;;16.50;8.90;;;;;;;-1.53;64.97;101294.71;88270;1273;99053;-80
2022/03/06 05:44:21;;;;;;;12.40;8.80;;;;;;;-1.52;64.96;101299.42;88297;1273;89380;-64
2022/03/06 05:46:29;;;;;;;15.40;8.70;;;;;;;-1.51;65.02;101298.83;88193;1273;95392;-59
2022/03/06 05:48:41;;;;;;;14.70;8.30;;;;;;;-1.47;65.30;101304.22;88256;1273;82686;-61
2022/03/06 05:50:50;;;;;;;14.10;8.30;;;;;;;-1.43;65.19;101306.84;88298;1273;82036;-79
2022/03/06 05:53:00;;;;;;;14.50;8.00;;;;;;;-1.38;65.26;101306.18;88282;1273;99440;-79
2022/03/06 05:55:14;;;;;;;11.20;7.50;;;;;;;-1.30;65.20;101302.35;88275;1273;90568;-80
2022/03/06 05:57:24;;;;;;;11.10;7.30;;;;;;;-1.23;65.54;101301.86;88297;1273;95642;-80
2022/03/06 05:59:33;;;;;;;13.90;7.40;;;;;;;-1.12;65.64;101301.95;88318;1273;80309;-59
2022/03/06 06:01:42;;;;;;;12.60;8.20;;;;;;;-1.03;65.40;101300.11;88302;1273;82950;-61
2022/03/06 06:03:52;;;;;;;11.40;7.40;;;;;;;-0.95;65.30;101298.90;88254;1273;99756;-60
2022/03/06 06:06:01;;;;;;;11.00;7.00;;;;;;;-0.90;64.85;101297.03;88308;1273;87332;-78
2022/03/06 06:08:10;;;;;;;9.90;7.30;;;;;;;-0.85;64.83;101293.04;88272;1273;93648;-78
2022/03/06 06:10:23;;;;;;;13.10;7.20;;;;;;;-0.83;64.90;101291.45;88279;1272;77596;-60
2022/03/06 06:12:32;;;;;;;12.10;7.90;;;;;;;-0.78;64.79;101288.50;88289;1274;81383;-60
2022/03/06 06:14:41;;;;;;;13.70;8.20;;;;;;;-0.71;64.76;101287.15;88281;1273;99163;-78
2022/03/06 06:16:53;;;;;;;15.20;8.20;;;;;;;-0.60;64.74;101287.54;88306;1273;87319;-80
2022/03/06 06:19:03;;;;;;;11.00;7.40;;;;;;;-0.51;64.64;101284.48;88269;1273;95953;-79
2022/03/06 06:21:13;;;;;;;10.70;6.90;;;;;;;-0.43;64.30;101285.01;88230;1273;77642;-60
2022/03/06 06:23:23;;;;;;;11.50;7.00;;;;;;;-0.36;64.25;101282.13;88280;1274;81182;-60
2022/03/06 06:25:32;;;;;;;11.20;7.20;;;;;;;-0.30;64.18;101281.00;88289;1273;98804;-60
2022/03/06 06:27:41;;;;;;;10.30;7.20;;;;;;;-0.23;64.11;101275.92;88288;1273;86641;-60
2022/03/06 06:29:50;;;;;;;27.00;14.90;;;;;;;-0.14;63.82;101273.75;88253;1273;95638;-60
2022/03/06 06:32:00;;;;;;;23.30;13.20;;;;;;;-0.01;64.02;101273.98;88265;1273;78629;-60
2022/03/06 06:34:12;;;;;;;14.70;10.10;;;;;;;0.13;63.58;101274.09;88439;1273;81345;-70
2022/03/06 06:36:21;;;;;;;15.70;9.10;;;;;;;0.25;63.44;101267.40;88264;1273;98994;-60
2022/03/06 06:38:34;;;;;;;13.70;8.40;;;;;;;0.43;63.47;101269.23;88282;1273;89837;-61
2022/03/06 06:40:43;;;;;;;12.80;7.50;;;;;;;0.59;63.04;101268.61;88267;1273;96172;-60
2022/03/06 06:42:53;;;;;;;13.40;8.00;;;;;;;0.70;62.95;101269.64;88271;1273;77588;-61
2022/03/06 06:45:02;;;;;;;11.40;7.70;;;;;;;0.84;62.68;101270.44;88301;1273;79824;-78
2022/03/06 06:47:11;;;;;;;14.80;8.60;;;;;;;1.00;62.72;101270.40;88301;1273;97848;-79
2022/03/06 06:49:21;;;;;;;10.30;7.00;;;;;;;1.22;62.74;101268.98;88314;1273;89190;-79
2022/03/06 06:51:34;;;;;;;11.30;7.00;;;;;;;1.62;62.09;101270.02;88291;1273;93055;-80
2022/03/06 06:53:44;;;;;;;10.20;6.70;;;;;;;2.00;61.11;101272.68;88275;1273;77922;-79
2022/03/06 06:55:54;;;;;;;9.70;6.30;;;;;;;2.09;60.14;101271.16;88299;1273;83416;-78
2022/03/06 06:58:03;;;;;;;9.30;5.90;;;;;;;2.15;59.74;101267.17;88286;1273;99947;-79
2022/03/06 07:00:15;;;;;;;9.40;5.90;;;;;;;2.35;59.22;101269.50;88281;1273;88916;-78
2022/03/06 07:02:24;;;;;;;10.40;6.50;;;;;;;2.59;58.74;101263.20;88278;1273;94692;-80
2022/03/06 07:04:34;;;;;;;8.70;6.30;;;;;;;2.81;58.26;101265.44;88284;1273;78111;-61
2022/03/06 07:06:44;;;;;;;9.80;6.00;;;;;;;3.05;57.85;101266.42;88277;1273;82974;-61
2022/03/06 07:08:53;;;;;;;11.40;7.90;;;;;;;3.23;57.79;101265.88;88273;1273;99296;-61
2022/03/06 07:11:05;;;;;;;11.60;7.10;;;;;;;3.36;57.64;101262.83;88190;1274;90839;-80
2022/03/06 07:13:14;;;;;;;11.20;7.50;;;;;;;3.57;56.94;101264.89;88260;1273;95525;-79
2022/03/06 07:15:28;;;;;;;10.40;7.10;;;;;;;3.90;56.67;101263.60;88274;1273;77208;-78
2022/03/06 07:17:38;;;;;;;;;;;;;;;4.35;56.34;101262.45;88219;1273;80731;-78
2022/03/06 07:19:48;;;;;;;10.90;6.70;;;;;;;4.40;55.66;101261.38;88295;1273;99693;-60
2022/03/06 07:21:59;;;;;;;11.40;6.40;;;;;;;4.36;55.49;101264.00;88276;1273;87501;-60
2022/03/06 07:24:10;;;;;;;10.40;6.50;;;;;;;4.28;54.76;101263.62;88268;1273;94134;-62
2022/03/06 07:26:19;;;;;;;9.20;6.00;;;;;;;4.25;54.30;101262.48;88289;1273;77806;-80
2022/03/06 07:28:29;;;;;;;8.50;5.80;;;;;;;4.27;54.40;101257.64;88275;1273;80583;-78
2022/03/06 07:30:39;;;;;;;8.20;5.90;;;;;;;4.37;54.04;101258.45;88295;1273;98658;-60
2022/03/06 07:32:53;;;;;;;9.20;6.30;;;;;;;4.53;53.73;101262.94;88264;1273;87893;-59
2022/03/06 07:35:02;;;;;;;8.70;5.80;;;;;;;4.60;53.37;101258.39;88216;1273;93258;-77
2022/03/06 07:37:12;;;;;;;5.70;5.00;;;;;;;5.95;54.04;101253.47;88293;1273;76967;-79
2022/03/06 07:39:24;;;;;;;7.00;5.10;;;;;;;8.25;51.92;101245.98;88282;1273;81241;-77
2022/03/06 07:41:33;;;;;;;7.20;5.20;;;;;;;10.22;51.06;101238.89;88274;1273;99998;-78
2022/03/06 07:43:42;;;;;;;7.70;4.60;;;;;;;11.96;50.54;101234.25;88286;1273;86706;-79
2022/03/06 07:45:51;;;;;;;6.00;5.20;;;;;;;12.43;47.45;101236.98;88239;1271;95317;-60
2022/03/06 07:48:00;;;;;;;6.40;4.80;;;;;;;12.75;47.77;101230.80;88275;1274;79692;-60
2022/03/06 07:50:15;;;;;;;5.80;4.60;;;;;;;12.72;46.28;101239.86;88279;1273;83139;-60
2022/03/06 07:52:24;;;;;;;6.80;4.90;;;;;;;12.41;45.28;101239.77;88270;1273;99665;-60
2022/03/06 07:54:34;;;;;;;7.00;5.10;;;;;;;12.19;44.24;101236.95;88300;1273;88419;-80
2022/03/06 07:56:43;;;;;;;6.20;4.70;;;;;;;12.03;43.39;101239.23;88272;1273;95177;-79
2022/03/06 07:58:55;;;;;;;5.40;4.40;;;;;;;12.31;42.84;101235.70;88282;1273;79734;-79
2022/03/06 08:01:07;;;;;;;5.70;4.70;;;;;;;12.89;43.48;101228.84;88277;1273;81320;-61
2022/03/06 08:03:17;;;;;;;6.40;4.50;;;;;;;13.47;42.67;101226.95;88250;1273;99846;-60
2022/03/06 08:05:26;;;;;;;5.90;5.20;;;;;;;13.49;42.20;101227.70;88292;1273;88856;-60
2022/03/06 08:07:36;;;;;;;5.30;4.70;;;;;;;13.80;42.25;101230.26;88264;1274;94093;-61
2022/03/06 08:09:44;;;;;;;6.30;5.00;;;;;;;14.50;41.57;101228.48;88270;1273;81180;-61
2022/03/06 08:11:54;;;;;;;5.30;4.10;;;;;;;15.20;41.07;101223.48;88301;1273;82997;-61
2022/03/06 08:14:04;;;;;;;7.00;4.90;;;;;;;15.02;39.76;101227.41;88280;1273;100367;-60
2022/03/06 08:16:16;;;;;;;5.80;4.40;;;;;;;13.33;39.31;101236.81;88282;1273;87031;-61
2022/03/06 08:18:25;;;;;;;6.10;4.80;;;;;;;11.92;39.49;101233.45;88263;1273;94109;-60
2022/03/06 08:20:34;;;;;;;5.70;4.70;;;;;;;11.11;39.35;101239.27;88270;1273;78543;-79
2022/03/06 08:22:44;;;;;;;5.70;4.80;;;;;;;10.49;39.19;101246.21;88220;1273;83460;-79
2022/03/06 08:24:56;;;;;;;5.90;4.40;;;;;;;9.92;39.23;101251.76;88280;1273;100198;-79
2022/03/06 08:27:06;;;;;;;6.20;4.60;;;;;;;9.42;39.10;101252.91;88271;1273;89014;-79
2022/03/06 08:29:15;;;;;;;5.90;4.60;;;;;;;8.81;39.09;101254.64;88269;1273;95857;-61
2022/03/06 08:31:25;;;;;;;5.30;4.50;;;;;;;8.19;39.50;101255.48;88267;1273;79431;-73
2022/03/06 08:33:34;;;;;;;6.30;5.00;;;;;;;7.85;39.97;101256.20;88275;1273;82136;-75
2022/03/06 08:35:44;;;;;;;6.20;5.30;;;;;;;7.54;39.98;101258.88;88285;1273;99877;-64
2022/03/06 08:37:56;;;;;;;6.60;4.80;;;;;;;7.35;40.29;101258.03;88267;1273;85944;-60
2022/03/06 08:40:10;;;;;;;7.50;5.70;;;;;;;7.28;39.94;101260.48;88308;1273;95820;-74
2022/03/06 08:42:21;;;;;;;7.10;5.50;;;;;;;7.06;39.76;101254.77;88315;1273;76765;-62
2022/03/06 08:44:30;;;;;;;6.70;5.10;;;;;;;6.87;40.18;101253.52;88260;1273;82826;-77
2022/03/06 08:46:42;;;;;;;7.60;5.30;;;;;;;6.85;40.89;101257.36;88266;1273;98219;-76
2022/03/06 08:48:52;;;;;;;7.30;5.20;;;;;;;6.87;41.04;101260.75;88267;1273;88813;-75
2022/03/06 08:51:06;;;;;;;8.80;6.00;;;;;;;6.85;41.24;101256.23;88290;1274;92490;-75
2022/03/06 08:53:20;;;;;;;8.30;5.40;;;;;;;6.67;41.03;101261.05;88238;1273;79171;-75
2022/03/06 08:55:33;;;;;;;7.00;5.70;;;;;;;6.67;41.05;101260.86;88275;1274;81529;-63
2022/03/06 08:57:42;;;;;;;6.20;5.30;;;;;;;6.31;41.01;101258.85;88259;1273;99501;-61
2022/03/06 08:59:51;;;;;;;7.00;5.30;;;;;;;6.11;41.28;101261.41;88285;1273;88774;-60
2022/03/06 09:02:00;;;;;;;8.20;5.70;;;;;;;6.16;41.06;101262.20;88182;1273;95505;-60
2022/03/06 09:04:09;;;;;;;5.50;4.80;;;;;;;6.11;40.95;101264.83;88274;1272;77442;-60
2022/03/06 09:06:19;;;;;;;6.80;5.30;;;;;;;5.88;41.16;101260.11;88286;1273;81303;-60
2022/03/06 09:08:29;;;;;;;8.70;6.20;;;;;;;5.73;41.25;101264.27;88268;1272;100066;-62
2022/03/06 09:10:38;;;;;;;8.50;5.80;;;;;;;5.70;40.71;101264.42;88283;1273;87074;-73
2022/03/06 09:12:48;;;;;;;8.80;6.00;;;;;;;5.52;40.73;101264.02;88268;1273;94591;-72
2022/03/06 09:14:58;;;;;;;7.80;5.10;;;;;;;5.28;41.20;101261.20;88274;1273;79338;-76
2022/03/06 09:17:09;;;;;;;11.00;6.80;;;;;;;5.13;41.81;101257.89;88284;1273;83013;-76
2022/03/06 09:19:18;;;;;;;9.90;6.90;;;;;;;5.33;41.81;101261.47;88329;1273;99557;-62
2022/03/06 09:21:28;;;;;;;9.80;6.10;;;;;;;5.41;41.86;101258.83;88248;1273;90641;-61
2022/03/06 09:23:37;;;;;;;8.00;6.10;;;;;;;5.86;42.07;101256.74;88260;1273;94520;-60
2022/03/06 09:25:46;;;;;;;10.00;6.80;;;;;;;6.74;41.99;101245.95;88256;1273;77343;-61
2022/03/06 09:27:56;;;;;;;8.90;7.00;;;;;;;7.49;41.15;101243.45;88255;1273;82936;-74
2022/03/06 09:30:07;;;;;;;6.80;4.70;;;;;;;8.29;40.85;101240.95;88330;1273;99593;-60
2022/03/06 09:32:16;;;;;;;5.80;4.50;;;;;;;8.93;40.12;101234.54;88200;1273;87498;-59
2022/03/06 09:34:25;;;;;;;7.40;5.00;;;;;;;8.81;39.21;101230.77;88287;1273;95162;-74
2022/03/06 09:36:36;;;;;;;6.90;5.40;;;;;;;8.76;39.25;101226.43;88277;1273;81053;-75
2022/03/06 09:38:48;;;;;;;7.10;5.40;;;;;;;9.44;39.51;101234.61;88269;1273;83049;-75
2022/03/06 09:41:01;;;;;;;6.90;5.00;;;;;;;9.70;39.13;101230.39;88278;1273;100172;-75
2022/03/06 09:43:15;;;;;;;9.30;5.30;;;;;;;10.04;39.07;101228.66;88286;1271;87498;-60
2022/03/06 09:45:30;;;;;;;7.20;4.20;;;;;;;10.43;38.78;101222.75;88262;1273;94949;-60
2022/03/06 09:47:40;;;;;;;5.30;4.20;;;;;;;10.25;38.54;101215.19;88299;1273;78128;-73
2022/03/06 09:49:50;;;;;;;7.00;5.10;;;;;;;9.84;38.41;101219.80;88276;1273;81673;-60
2022/03/06 09:52:02;;;;;;;6.60;5.00;;;;;;;9.42;38.15;101221.29;88250;1273;98735;-60
2022/03/06 09:54:16;;;;;;;5.70;4.30;;;;;;;8.98;38.15;101220.94;88240;1273;88328;-70
2022/03/06 09:56:24;;;;;;;5.40;4.20;;;;;;;9.00;38.54;101218.10;88266;1273;94032;-74
2022/03/06 09:58:34;;;;;;;6.30;4.40;;;;;;;9.17;38.43;101215.57;88262;1273;79690;-74
2022/03/06 10:00:44;;;;;;;6.50;4.90;;;;;;;9.02;37.09;101215.31;88266;1273;81072;-75